createdAt,value
2023-04-02T00:01:01.811Z,7.06
2023-04-02T00:03:44.442Z,7.18
2023-04-02T00:06:30.166Z,7.11
2023-04-02T00:09:04.679Z,6.97
2023-04-02T00:11:37.470Z,7.10
2023-04-02T00:14:13.611Z,7.05
2023-04-02T00:16:41.852Z,7.03
2023-04-02T00:19:16.901Z,7.00
2023-04-02T00:21:46.462Z,7.04
2023-04-02T00:24:17.553Z,6.96
2023-04-02T00:26:46.847Z,6.90
2023-04-02T00:29:16.189Z,7.00
2023-04-02T00:31:46.564Z,7.00
2023-04-02T00:34:32.358Z,6.95
2023-04-02T00:37:00.042Z,6.88
2023-04-02T00:39:30.968Z,6.70
2023-04-02T00:42:08.082Z,6.77
2023-04-02T00:44:43.242Z,6.86
2023-04-02T00:47:35.682Z,6.86
2023-04-02T00:50:18.480Z,6.71
2023-04-02T00:52:50.033Z,6.70
2023-04-02T00:55:39.650Z,6.74
2023-04-02T00:58:27.757Z,6.76
2023-04-02T01:00:54.967Z,6.74
2023-04-02T01:03:28.665Z,6.78
2023-04-02T01:06:03.625Z,6.77
2023-04-02T01:09:15.083Z,6.73
2023-04-02T01:11:42.315Z,6.69
2023-04-02T01:14:36.002Z,6.69
2023-04-02T01:17:20.136Z,6.77
2023-04-02T01:19:58.298Z,6.78
2023-04-02T01:22:53.405Z,6.70
2023-04-02T01:25:43.391Z,6.70
2023-04-02T01:28:19.773Z,6.63
2023-04-02T01:30:54.536Z,6.62
2023-04-02T01:33:31.285Z,6.58
2023-04-02T01:36:09.165Z,6.63
2023-04-02T01:38:57.543Z,6.59
2023-04-02T01:41:34.489Z,6.51
2023-04-02T01:44:09.956Z,6.60
2023-04-02T01:46:42.204Z,6.64
2023-04-02T01:49:15.369Z,6.65
2023-04-02T01:51:45.828Z,6.59
2023-04-02T01:54:16.428Z,6.25
2023-04-02T01:56:45.548Z,6.45
2023-04-02T01:59:14.329Z,6.36
2023-04-02T02:01:49.097Z,6.28
2023-04-02T02:04:17.136Z,6.24
2023-04-02T02:06:45.647Z,6.19
2023-04-02T02:09:19.064Z,6.27
2023-04-02T02:11:46.203Z,6.17
2023-04-02T02:14:18.590Z,6.17
2023-04-02T02:16:46.942Z,6.10
2023-04-02T02:19:24.109Z,6.11
2023-04-02T02:21:54.387Z,6.13
2023-04-02T02:24:26.032Z,6.03
2023-04-02T02:27:31.121Z,5.89
2023-04-02T02:30:53.840Z,5.91
2023-04-02T02:33:25.499Z,5.81
2023-04-02T02:36:03.357Z,5.92
2023-04-02T02:38:49.413Z,5.93
2023-04-02T02:41:38.276Z,5.66
2023-04-02T02:44:08.318Z,5.69
2023-04-02T02:46:43.220Z,5.81
2023-04-02T02:49:16.324Z,5.91
2023-04-02T02:52:01.752Z,5.88
2023-04-02T02:54:31.606Z,5.79
2023-04-02T02:57:03.751Z,5.77
2023-04-02T02:59:32.080Z,5.80
2023-04-02T03:02:01.504Z,5.83
2023-04-02T03:04:35.638Z,5.69
2023-04-02T03:07:05.886Z,5.78
2023-04-02T03:09:49.678Z,5.77
2023-04-02T03:12:47.602Z,5.76
2023-04-02T03:16:15.128Z,5.72
2023-04-02T03:19:14.272Z,5.70
2023-04-02T03:22:16.404Z,5.73
2023-04-02T03:24:53.859Z,5.67
2023-04-02T03:27:26.425Z,5.62
2023-04-02T03:30:27.948Z,5.63
2023-04-02T03:33:03.765Z,5.60
2023-04-02T03:35:59.386Z,5.57
2023-04-02T03:38:41.925Z,5.51
2023-04-02T03:41:11.903Z,5.55
2023-04-02T03:44:00.950Z,5.57
2023-04-02T03:46:51.163Z,5.57
2023-04-02T03:49:31.939Z,5.55
2023-04-02T03:52:03.010Z,5.52
2023-04-02T03:54:31.154Z,5.57
2023-04-02T03:56:59.700Z,5.57
2023-04-02T03:59:32.851Z,5.58
2023-04-02T04:02:11.912Z,5.39
2023-04-02T04:04:42.055Z,5.30
2023-04-02T04:07:22.679Z,5.20
2023-04-02T04:09:52.489Z,5.30
2023-04-02T04:12:34.584Z,5.33
2023-04-02T04:15:14.107Z,5.36
2023-04-02T04:17:51.640Z,5.31
2023-04-02T04:20:24.355Z,5.32
2023-04-02T04:22:55.756Z,5.28
2023-04-02T04:25:34.199Z,5.30
2023-04-02T04:28:10.952Z,5.30
2023-04-02T04:30:51.580Z,5.17
2023-04-02T04:33:25.685Z,5.14
2023-04-02T04:36:00.286Z,5.23
2023-04-02T04:38:39.231Z,5.01
2023-04-02T04:41:22.432Z,5.03
2023-04-02T04:43:59.755Z,4.94
2023-04-02T04:46:36.797Z,4.83
2023-04-02T04:49:25.806Z,4.87
2023-04-02T04:51:58.524Z,4.78
2023-04-02T04:54:27.574Z,4.78
2023-04-02T04:57:03.129Z,4.85
2023-04-02T04:59:45.214Z,4.65
2023-04-02T05:02:29.557Z,4.58
2023-04-02T05:04:56.953Z,4.65
2023-04-02T05:07:29.731Z,4.57
2023-04-02T05:10:19.761Z,4.46
2023-04-02T05:13:01.867Z,4.25
2023-04-02T05:16:06.339Z,4.15
2023-04-02T05:18:54.071Z,4.12
2023-04-02T05:22:03.675Z,3.92
2023-04-02T05:24:37.754Z,3.80
2023-04-02T05:27:46.731Z,3.89
2023-04-02T05:30:28.849Z,3.91
2023-04-02T05:33:19.948Z,3.89
2023-04-02T05:35:52.026Z,3.81
2023-04-02T05:38:27.998Z,3.77
2023-04-02T05:41:04.941Z,3.68
2023-04-02T05:43:35.433Z,3.67
2023-04-02T05:46:15.447Z,3.54
2023-04-02T05:48:45.279Z,3.48
2023-04-02T05:51:24.066Z,3.48
2023-04-02T05:53:59.503Z,3.41
2023-04-02T05:56:35.041Z,3.38
2023-04-02T05:59:31.422Z,3.35
2023-04-02T06:02:08.396Z,3.43
2023-04-02T06:04:55.738Z,3.49
2023-04-02T06:07:29.606Z,3.46
2023-04-02T06:10:05.814Z,3.41
2023-04-02T06:12:47.675Z,3.52
2023-04-02T06:15:17.249Z,3.52
2023-04-02T06:18:06.508Z,3.51
2023-04-02T06:20:34.059Z,3.56
2023-04-02T06:23:13.624Z,3.53
2023-04-02T06:25:53.921Z,3.60
2023-04-02T06:28:27.864Z,3.64
2023-04-02T06:30:59.623Z,3.75
2023-04-02T06:33:26.910Z,3.75
2023-04-02T06:35:55.358Z,3.76
2023-04-02T06:38:27.533Z,3.77
2023-04-02T06:40:59.054Z,3.88
2023-04-02T06:43:37.321Z,3.88
2023-04-02T06:46:16.648Z,3.89
2023-04-02T06:48:45.633Z,3.86
2023-04-02T06:51:16.824Z,3.96
2023-04-02T06:53:48.535Z,3.95
2023-04-02T06:57:01.267Z,3.89
2023-04-02T06:59:28.445Z,4.04
2023-04-02T07:02:06.736Z,4.01
2023-04-02T07:04:34.313Z,4.04
2023-04-02T07:07:01.635Z,4.04
2023-04-02T07:09:28.832Z,4.07
2023-04-02T07:11:56.145Z,4.11
2023-04-02T07:14:23.293Z,4.11
2023-04-02T07:16:52.013Z,4.23
2023-04-02T07:19:22.652Z,4.19
2023-04-02T07:21:49.892Z,4.27
2023-04-02T07:24:16.963Z,4.17
2023-04-02T07:26:44.112Z,3.98
2023-04-02T07:29:15.885Z,3.98
2023-04-02T07:31:43.538Z,3.99
2023-04-02T07:34:13.692Z,4.06
2023-04-02T07:36:41.853Z,4.02
2023-04-02T07:39:08.945Z,4.04
2023-04-02T07:41:54.744Z,4.19
2023-04-02T07:44:22.200Z,4.21
2023-04-02T07:46:49.332Z,4.15
2023-04-02T07:49:16.675Z,4.12
2023-04-02T07:51:43.756Z,4.20
2023-04-02T07:54:11.527Z,4.20
2023-04-02T07:56:38.672Z,4.24
2023-04-02T07:59:06.254Z,4.31
2023-04-02T08:01:35.485Z,4.24
2023-04-02T08:04:04.911Z,4.33
2023-04-02T08:06:32.288Z,4.34
2023-04-02T08:08:59.664Z,4.10
2023-04-02T08:11:27.009Z,4.16
2023-04-02T08:13:54.079Z,4.16
2023-04-02T08:16:21.580Z,4.19
2023-04-02T08:18:48.623Z,4.30
2023-04-02T08:21:16.599Z,4.29
2023-04-02T08:23:44.149Z,4.26
2023-04-02T08:26:17.186Z,4.37
2023-04-02T08:28:44.245Z,4.27
2023-04-02T08:31:11.612Z,4.30
2023-04-02T08:33:38.642Z,4.31
2023-04-02T08:36:06.186Z,4.31
2023-04-02T08:38:33.472Z,4.33
2023-04-02T08:41:02.750Z,4.38
2023-04-02T08:43:42.088Z,4.52
2023-04-02T08:46:18.439Z,4.24
2023-04-02T08:48:55.251Z,4.24
2023-04-02T08:51:28.097Z,4.32
2023-04-02T08:53:59.860Z,4.38
2023-04-02T08:56:33.662Z,4.42
2023-04-02T08:59:08.370Z,4.63
2023-04-02T09:02:14.944Z,4.52
2023-04-02T09:04:45.797Z,4.53
2023-04-02T09:07:16.450Z,4.53
2023-04-02T09:09:46.973Z,4.67
2023-04-02T09:12:34.403Z,4.73
2023-04-02T09:15:10.726Z,4.67
2023-04-02T09:17:50.757Z,4.48
2023-04-02T09:20:26.620Z,4.43
2023-04-02T09:22:54.482Z,4.39
2023-04-02T09:25:26.878Z,4.70
2023-04-02T09:27:56.192Z,4.81
2023-04-02T09:30:29.794Z,4.93
2023-04-02T09:33:01.989Z,5.19
2023-04-02T09:35:31.216Z,5.35
2023-04-02T09:38:07.143Z,5.49
2023-04-02T09:41:00.776Z,5.48
2023-04-02T09:43:34.324Z,5.63
2023-04-02T09:46:13.576Z,5.57
2023-04-02T09:48:45.551Z,5.65
2023-04-02T09:51:17.226Z,5.75
2023-04-02T09:54:04.474Z,5.83
2023-04-02T09:56:36.099Z,5.94
2023-04-02T09:59:15.309Z,6.08
2023-04-02T10:01:57.060Z,6.03
2023-04-02T10:04:44.805Z,6.26
2023-04-02T10:07:37.405Z,6.34
2023-04-02T10:10:30.735Z,6.34
2023-04-02T10:13:03.706Z,6.40
2023-04-02T10:15:41.871Z,6.39
2023-04-02T10:18:12.131Z,6.51
2023-04-02T10:20:50.959Z,6.63
2023-04-02T10:23:19.596Z,6.73
2023-04-02T10:25:57.086Z,6.68
2023-04-02T10:28:47.081Z,6.77
2023-04-02T10:31:27.979Z,6.81
2023-04-02T10:34:07.182Z,6.97
2023-04-02T10:36:48.607Z,6.96
2023-04-02T10:39:32.579Z,6.94
2023-04-02T10:42:26.546Z,7.00
2023-04-02T10:45:21.921Z,7.04
2023-04-02T10:48:06.456Z,7.04
2023-04-02T10:50:48.831Z,7.09
2023-04-02T10:53:21.876Z,7.19
2023-04-02T10:55:55.103Z,7.34
2023-04-02T10:58:31.483Z,7.44
2023-04-02T11:01:17.656Z,7.42
2023-04-02T11:04:25.234Z,7.37
2023-04-02T11:07:14.090Z,7.44
2023-04-02T11:09:45.655Z,7.48
2023-04-02T11:12:24.487Z,7.46
2023-04-02T11:14:54.058Z,7.54
2023-04-02T11:17:22.335Z,7.51
2023-04-02T11:19:49.517Z,7.39
2023-04-02T11:22:21.039Z,7.46
2023-04-02T11:24:48.276Z,7.64
2023-04-02T11:27:22.017Z,7.72
2023-04-02T11:30:05.319Z,7.76
2023-04-02T11:32:56.238Z,7.91
2023-04-02T11:35:37.237Z,7.87
2023-04-02T11:38:11.153Z,7.91
2023-04-02T11:40:41.166Z,7.90
2023-04-02T11:43:32.995Z,7.98
2023-04-02T11:46:16.844Z,7.97
2023-04-02T11:48:44.498Z,8.01
2023-04-02T11:51:21.439Z,8.11
2023-04-02T11:53:52.044Z,8.10
2023-04-02T11:56:22.095Z,8.26
2023-04-02T11:59:01.660Z,8.32
2023-04-02T12:02:06.635Z,8.40
2023-04-02T12:04:39.605Z,8.42
2023-04-02T12:07:37.431Z,8.42
2023-04-02T12:10:15.790Z,8.46
2023-04-02T12:12:43.174Z,8.40
2023-04-02T12:15:30.211Z,8.42
2023-04-02T12:18:26.145Z,8.50
2023-04-02T12:20:56.246Z,8.52
2023-04-02T12:23:36.721Z,8.59
2023-04-02T12:26:09.096Z,8.58
2023-04-02T12:28:38.215Z,8.73
2023-04-02T12:31:13.491Z,8.81
2023-04-02T12:33:42.506Z,8.94
2023-04-02T12:36:14.407Z,9.05
2023-04-02T12:38:58.466Z,9.07
2023-04-02T12:41:33.292Z,9.22
2023-04-02T12:44:02.741Z,9.22
2023-04-02T12:46:31.719Z,9.26
2023-04-02T12:49:20.875Z,9.29
2023-04-02T12:51:49.368Z,9.13
2023-04-02T12:54:18.420Z,9.08
2023-04-02T12:56:45.716Z,9.15
2023-04-02T12:59:30.603Z,9.23
2023-04-02T13:02:01.486Z,9.33
2023-04-02T13:04:28.688Z,9.42
2023-04-02T13:06:56.398Z,9.41
2023-04-02T13:09:34.864Z,9.63
2023-04-02T13:12:02.974Z,9.81
2023-04-02T13:14:30.975Z,9.89
2023-04-02T13:16:58.072Z,9.96
2023-04-02T13:19:33.263Z,9.96
2023-04-02T13:22:02.903Z,10.11
2023-04-02T13:24:32.749Z,10.34
2023-04-02T13:27:02.047Z,10.49
2023-04-02T13:29:34.813Z,10.55
2023-04-02T13:32:13.014Z,10.64
2023-04-02T13:34:40.154Z,10.85
2023-04-02T13:37:07.172Z,11.04
2023-04-02T13:39:34.299Z,11.15
2023-04-02T13:42:03.510Z,11.33
2023-04-02T13:44:32.941Z,11.32
2023-04-02T13:47:01.096Z,11.33
2023-04-02T13:49:29.288Z,11.42
2023-04-02T13:52:03.119Z,11.85
2023-04-02T13:54:49.417Z,12.14
2023-04-02T13:57:16.933Z,12.31
2023-04-02T13:59:44.065Z,12.39
2023-04-02T14:02:19.013Z,12.52
2023-04-02T14:04:51.242Z,12.48
2023-04-02T14:07:30.680Z,12.95
2023-04-02T14:09:57.686Z,13.60
2023-04-02T14:12:39.046Z,14.09
2023-04-02T14:15:16.205Z,14.87
2023-04-02T14:17:51.043Z,15.74
2023-04-02T14:20:23.963Z,16.33
2023-04-02T14:23:42.998Z,16.56
2023-04-02T14:26:16.398Z,16.29
2023-04-02T14:28:57.316Z,16.40
2023-04-02T14:31:28.745Z,17.00
2023-04-02T14:34:33.346Z,17.41
2023-04-02T14:37:00.301Z,17.34
2023-04-02T14:39:53.442Z,17.47
2023-04-02T14:42:27.623Z,17.72
2023-04-02T14:45:05.414Z,17.62
2023-04-02T14:47:43.055Z,17.25
2023-04-02T14:50:19.520Z,17.50
2023-04-02T14:52:55.162Z,17.47
2023-04-02T14:55:34.545Z,17.48
2023-04-02T14:58:04.708Z,17.55
2023-04-02T15:00:45.946Z,17.90
2023-04-02T15:03:37.497Z,17.78
2023-04-02T15:06:12.442Z,17.21
2023-04-02T15:08:58.623Z,17.20
2023-04-02T15:11:33.361Z,17.23
2023-04-02T15:14:12.290Z,17.23
2023-04-02T15:16:39.520Z,17.03
2023-04-02T15:19:12.574Z,17.08
2023-04-02T15:21:57.552Z,16.85
2023-04-02T15:25:00.724Z,17.00
2023-04-02T15:27:31.556Z,16.58
2023-04-02T15:30:11.457Z,15.81
2023-04-02T15:32:39.781Z,15.55
2023-04-02T15:35:27.536Z,15.39
2023-04-02T15:38:15.883Z,15.17
2023-04-02T15:40:51.632Z,15.30
2023-04-02T15:43:42.547Z,14.83
2023-04-02T15:46:28.855Z,14.83
2023-04-02T15:49:17.231Z,14.96
2023-04-02T15:52:08.148Z,14.60
2023-04-02T15:54:58.609Z,14.25
2023-04-02T15:57:32.320Z,14.02
2023-04-02T16:00:23.818Z,14.08
2023-04-02T16:02:51.175Z,13.99
2023-04-02T16:05:39.245Z,13.88
2023-04-02T16:08:43.079Z,13.96
2023-04-02T16:11:13.177Z,13.79
2023-04-02T16:13:42.394Z,13.39
2023-04-02T16:16:20.457Z,13.74
2023-04-02T16:19:17.173Z,14.25
2023-04-02T16:22:17.138Z,14.23
2023-04-02T16:24:48.703Z,13.97
2023-04-02T16:27:34.446Z,14.06
2023-04-02T16:30:13.248Z,14.31
2023-04-02T16:32:55.539Z,14.57
2023-04-02T16:38:32.696Z,14.84
2023-04-02T16:41:42.491Z,15.24
2023-04-02T16:44:43.218Z,15.06
2023-04-02T16:47:28.611Z,15.32
2023-04-02T16:50:07.658Z,15.44
2023-04-02T16:52:49.131Z,15.39
2023-04-02T16:55:25.964Z,15.57
2023-04-02T16:57:58.794Z,15.46
2023-04-02T17:00:32.390Z,15.56
2023-04-02T17:03:18.222Z,15.60
2023-04-02T17:06:03.969Z,15.86
2023-04-02T17:08:45.667Z,15.67
2023-04-02T17:11:24.428Z,15.38
2023-04-02T17:14:09.453Z,15.40
2023-04-02T17:16:42.740Z,14.67
2023-04-02T17:19:13.065Z,14.38
2023-04-02T17:21:44.700Z,14.04
2023-04-02T17:24:17.221Z,13.26
2023-04-02T17:26:47.969Z,12.78
2023-04-02T17:29:24.079Z,12.09
2023-04-02T17:31:53.932Z,11.71
2023-04-02T17:34:23.839Z,11.47
2023-04-02T17:37:28.690Z,11.11
2023-04-02T17:40:17.380Z,10.82
2023-04-02T17:43:00.803Z,10.68
2023-04-02T17:45:55.382Z,10.43
2023-04-02T17:48:31.591Z,10.32
2023-04-02T17:51:16.958Z,10.26
2023-04-02T17:53:57.888Z,10.16
2023-04-02T17:56:52.988Z,10.09
2023-04-02T17:59:23.599Z,9.97
2023-04-02T18:02:06.995Z,9.92
2023-04-02T18:04:42.602Z,9.92
2023-04-02T18:07:38.196Z,9.68
2023-04-02T18:10:14.779Z,9.58
2023-04-02T18:13:07.690Z,9.60
2023-04-02T18:15:55.502Z,9.52
2023-04-02T18:18:45.071Z,9.39
2023-04-02T18:21:21.928Z,9.29
2023-04-02T18:24:02.741Z,9.22
2023-04-02T18:26:38.985Z,9.12
2023-04-02T18:29:24.553Z,9.07
2023-04-02T18:32:29.130Z,8.96
2023-04-02T18:35:00.316Z,8.96
2023-04-02T18:37:32.816Z,8.87
2023-04-02T18:40:08.588Z,8.79
2023-04-02T18:42:52.081Z,8.69
2023-04-02T18:45:41.448Z,8.67
2023-04-02T18:48:50.396Z,8.61
2023-04-02T18:51:27.139Z,8.64
2023-04-02T18:54:18.305Z,8.45
2023-04-02T18:56:45.610Z,8.35
2023-04-02T18:59:51.973Z,8.34
2023-04-02T19:02:26.015Z,8.33
2023-04-02T19:05:05.010Z,8.31
2023-04-02T19:07:38.733Z,8.23
2023-04-02T19:10:25.884Z,8.22
2023-04-02T19:12:52.900Z,8.17
2023-04-02T19:15:23.492Z,8.04
2023-04-02T19:18:19.269Z,8.04
2023-04-02T19:20:56.000Z,7.96
2023-04-02T19:23:39.893Z,7.92
2023-04-02T19:26:12.199Z,7.87
2023-04-02T19:28:42.458Z,7.85
2023-04-02T19:31:43.790Z,7.85
2023-04-02T19:34:43.296Z,7.70
2023-04-02T19:37:38.336Z,7.75
2023-04-02T19:40:35.792Z,7.54
2023-04-02T19:43:03.168Z,7.57
2023-04-02T19:45:46.862Z,7.49
2023-04-02T19:48:26.819Z,7.45
2023-04-02T19:50:54.244Z,7.35
2023-04-02T19:53:21.568Z,7.36
2023-04-02T19:55:48.843Z,7.34
2023-04-02T19:58:29.908Z,7.30
2023-04-02T20:00:57.358Z,7.16
2023-04-02T20:03:24.646Z,7.14
2023-04-02T20:05:52.683Z,7.18
2023-04-02T20:08:20.160Z,7.06
2023-04-02T20:10:47.568Z,7.04
2023-04-02T20:13:14.852Z,7.04
2023-04-02T20:15:42.430Z,7.03
2023-04-02T20:18:10.562Z,7.03
2023-04-02T20:20:39.187Z,7.01
2023-04-02T20:23:07.636Z,7.01
2023-04-02T20:25:34.756Z,6.91
2023-04-02T20:28:03.867Z,6.89
2023-04-02T20:30:32.606Z,6.86
2023-04-02T20:33:00.296Z,6.82
2023-04-02T20:35:27.609Z,6.71
2023-04-02T20:37:54.735Z,6.70
2023-04-02T20:40:22.588Z,6.67
2023-04-02T20:42:52.096Z,6.53
2023-04-02T20:45:19.296Z,6.56
2023-04-02T20:47:46.441Z,6.46
2023-04-02T20:50:13.594Z,6.41
2023-04-02T20:52:41.602Z,6.43
2023-04-02T20:55:09.513Z,6.34
2023-04-02T20:57:36.893Z,6.34
2023-04-02T21:00:06.639Z,6.30
2023-04-02T21:02:34.263Z,6.27
2023-04-02T21:05:01.365Z,6.28
2023-04-02T21:07:28.467Z,6.24
2023-04-02T21:09:55.512Z,6.17
2023-04-02T21:12:24.941Z,6.16
2023-04-02T21:14:57.249Z,6.14
2023-04-02T21:17:24.647Z,6.08
2023-04-02T21:19:52.262Z,6.03
2023-04-02T21:22:19.341Z,6.02
2023-04-02T21:24:46.455Z,6.02
2023-04-02T21:27:13.741Z,6.03
2023-04-02T21:29:41.479Z,6.01
2023-04-02T21:32:20.361Z,5.96
2023-04-02T21:34:48.583Z,5.99
2023-04-02T21:37:15.680Z,5.90
2023-04-02T21:39:42.740Z,5.77
2023-04-02T21:42:11.399Z,5.78
2023-04-02T21:44:38.536Z,5.77
2023-04-02T21:47:05.814Z,5.77
2023-04-02T21:49:33.032Z,5.74
2023-04-02T21:52:00.152Z,5.68
2023-04-02T21:54:27.238Z,5.64
2023-04-02T21:56:54.296Z,5.47
2023-04-02T21:59:21.504Z,5.56
2023-04-02T22:01:52.202Z,5.48
2023-04-02T22:04:22.604Z,5.44
2023-04-02T22:06:51.214Z,5.37
2023-04-02T22:09:22.364Z,5.31
2023-04-02T22:11:56.108Z,5.37
2023-04-02T22:14:23.320Z,5.37
2023-04-02T22:16:50.369Z,5.29
2023-04-02T22:19:20.345Z,5.20
2023-04-02T22:21:47.771Z,5.20
2023-04-02T22:24:18.792Z,5.16
2023-04-02T22:26:46.155Z,5.17
2023-04-02T22:29:13.611Z,5.17
2023-04-02T22:31:41.534Z,5.13
2023-04-02T22:34:08.638Z,5.09
2023-04-02T22:36:35.905Z,5.07
2023-04-02T22:39:06.664Z,5.03
2023-04-02T22:41:33.789Z,4.99
2023-04-02T22:44:02.341Z,5.01
2023-04-02T22:46:30.232Z,5.01
2023-04-02T22:48:57.520Z,4.96
2023-04-02T22:51:25.990Z,4.91
2023-04-02T22:53:54.875Z,4.75
2023-04-02T22:56:28.736Z,4.79
2023-04-02T22:58:56.023Z,4.71
2023-04-02T23:01:31.550Z,4.63
2023-04-02T23:03:58.996Z,4.58
2023-04-02T23:06:26.776Z,4.62
2023-04-02T23:08:53.991Z,4.52
2023-04-02T23:11:23.735Z,4.63
2023-04-02T23:13:53.436Z,4.61
2023-04-02T23:16:21.387Z,4.62
2023-04-02T23:18:49.128Z,4.51
2023-04-02T23:21:17.906Z,4.53
2023-04-02T23:23:46.348Z,4.50
2023-04-02T23:26:23.029Z,4.48
2023-04-02T23:28:51.002Z,4.51
2023-04-02T23:31:21.496Z,4.58
2023-04-02T23:33:49.287Z,4.58
2023-04-02T23:36:26.223Z,4.57
2023-04-02T23:38:55.697Z,4.54
2023-04-02T23:41:24.535Z,4.53
2023-04-02T23:43:52.056Z,4.46
2023-04-02T23:46:19.829Z,4.41
2023-04-02T23:48:47.536Z,4.46
2023-04-02T23:51:14.620Z,4.49
2023-04-02T23:53:43.466Z,4.49
2023-04-02T23:56:11.334Z,4.37
2023-04-02T23:58:38.345Z,4.37
